Snav Aquila — IJCM2 — position and weather

sailwx.info

Track history (hours):
 
Tides and Currents Weather Stations Pressure Air Temp Water Temp Dewpoint Dewpoint Depression Visibility Wind Speed Wind Dir Waves Ship Positions

Snav Aquila

Last reported at 2014-Jul-30 16:33 UTC. Time now 2014-Jul-31 01:17 UTC.
Position N 40°41' E 014°16'.

Length 45 m; draft 1.6 m.

Type: Passenger vessel. MMSI: 247318800.

Date/timePositionNaut miles runAvg speedWind from/ knotsBaromVisibWave heightAir tempDewpointWater temp
2014-Jul-30 16:33N 40°41' E 014°16'8 7.9
2014-Jul-30 15:33N 40°33' E 014°14'6 5.9
2014-Jul-30 14:32N 40°39' E 014°17'11 0.5
2014-Jul-29 17:07N 40°50' E 014°16'1 1.8
2014-Jul-29 16:33N 40°50' E 014°17'0 0.0
2014-Jul-29 15:34N 40°50' E 014°17'0 0.0
2014-Jul-29 14:34N 40°50' E 014°17'0 0.0
2014-Jul-29 13:30N 40°50' E 014°17'5 0.7
2014-Jul-29 06:31N 40°47' E 014°13'  
2014-Jul-26 13:21N 40°50' E 014°17'0 0.1
2014-Jul-26 12:33N 40°50' E 014°17'0 0.0
2014-Jul-26 11:24N 40°50' E 014°17'0 0.0
2014-Jul-26 10:33N 40°50' E 014°17'0 0.0
2014-Jul-26 09:29N 40°50' E 014°17'0 0.0
2014-Jul-26 08:33N 40°50' E 014°17'  
Track history (hours):
 
Tides and Currents Weather Stations Pressure Air Temp Water Temp Dewpoint Dewpoint Depression Visibility Wind Speed Wind Dir Waves Ship Positions

Snav Aquila

Last reported at 2014-Jul-30 16:33 UTC. Time now 2014-Jul-31 01:17 UTC.
Position N 40°41' E 014°16'.

Length 45 m; draft 1.6 m.

Type: Passenger vessel. MMSI: 247318800.

Date/timePositionNaut miles runAvg speedWind from/ knotsBaromVisibWave heightAir tempDewpointWater temp
2014-Jul-30 16:33N 40°41' E 014°16'8 7.9
2014-Jul-30 15:33N 40°33' E 014°14'6 5.9
2014-Jul-30 14:32N 40°39' E 014°17'11 0.5
2014-Jul-29 17:07N 40°50' E 014°16'1 1.8
2014-Jul-29 16:33N 40°50' E 014°17'0 0.0
2014-Jul-29 15:34N 40°50' E 014°17'0 0.0
2014-Jul-29 14:34N 40°50' E 014°17'0 0.0
2014-Jul-29 13:30N 40°50' E 014°17'5 0.7
2014-Jul-29 06:31N 40°47' E 014°13'  
2014-Jul-26 13:21N 40°50' E 014°17'0 0.1
2014-Jul-26 12:33N 40°50' E 014°17'0 0.0
2014-Jul-26 11:24N 40°50' E 014°17'0 0.0
2014-Jul-26 10:33N 40°50' E 014°17'0 0.0
2014-Jul-26 09:29N 40°50' E 014°17'0 0.0
2014-Jul-26 08:33N 40°50' E 014°17'  

Dump ship's entire track history